HVN626 VTBS-VVDN
Flight info
| Callsign | HVN626 |
|---|---|
| Flight time | 1h 15m |
| Altitude | 37000 |
| Route | LIPLI1J LIPLI Y16 BUTRA A1 PAPRA PAPRA2K |
| Aircraft | A321/M-SDE3FGHIRWY/LB1 |
Departure
| Time | 2026-04-30 09:16 |
|---|---|
| Airport | Suvarnabhumi Airport (VTBS) |
Arrival
| Time | 2026-04-30 10:31 |
|---|---|
| Airport | Da Nang International Airport (VVDN) |
| Time | Latitude | Longitude | Altitude | Speed | Heading |
|---|---|---|---|---|---|
| 2026-04-30 08:30 | 13.69130 | 100.74859 | 14 ft | 0 kts | 14° |
| 2026-04-30 09:01 | 13.69119 | 100.74856 | 14 ft | 4 kts | 14° |
| 2026-04-30 09:02 | 13.69071 | 100.74843 | 16 ft | 4 kts | 17° |
| 2026-04-30 09:02 | 13.69051 | 100.74830 | 17 ft | 4 kts | 62° |
| 2026-04-30 09:02 | 13.69041 | 100.74804 | 15 ft | 4 kts | 68° |
| 2026-04-30 09:03 | 13.69039 | 100.74798 | 14 ft | 0 kts | 65° |
| 2026-04-30 09:06 | 13.69040 | 100.74801 | 14 ft | 0 kts | 66° |
| 2026-04-30 09:06 | 13.69043 | 100.74811 | 14 ft | 2 kts | 74° |
| 2026-04-30 09:06 | 13.69043 | 100.74836 | 14 ft | 4 kts | 99° |
| 2026-04-30 09:07 | 13.69034 | 100.74872 | 13 ft | 6 kts | 103° |
| 2026-04-30 09:07 | 13.69022 | 100.74923 | 13 ft | 8 kts | 103° |
| 2026-04-30 09:07 | 13.69007 | 100.74986 | 13 ft | 10 kts | 103° |
| 2026-04-30 09:07 | 13.68989 | 100.75063 | 15 ft | 12 kts | 103° |
| 2026-04-30 09:08 | 13.68972 | 100.75129 | 15 ft | 8 kts | 106° |
| 2026-04-30 09:08 | 13.68952 | 100.75192 | 13 ft | 10 kts | 116° |
| 2026-04-30 09:08 | 13.68887 | 100.75212 | 13 ft | 11 kts | 193° |
| 2026-04-30 09:08 | 13.68807 | 100.75190 | 13 ft | 13 kts | 195° |
| 2026-04-30 09:09 | 13.68717 | 100.75165 | 13 ft | 10 kts | 195° |
| 2026-04-30 09:09 | 13.68674 | 100.75154 | 13 ft | 0 kts | 194° |
| 2026-04-30 09:09 | 13.68651 | 100.75148 | 13 ft | 6 kts | 193° |
| 2026-04-30 09:10 | 13.68597 | 100.75152 | 13 ft | 9 kts | 155° |
| 2026-04-30 09:10 | 13.68565 | 100.75214 | 13 ft | 11 kts | 102° |
| 2026-04-30 09:10 | 13.68546 | 100.75296 | 13 ft | 13 kts | 104° |
| 2026-04-30 09:10 | 13.68522 | 100.75390 | 13 ft | 14 kts | 105° |
| 2026-04-30 09:11 | 13.68496 | 100.75491 | 14 ft | 15 kts | 104° |
| 2026-04-30 09:11 | 13.68477 | 100.75567 | 13 ft | 8 kts | 104° |
| 2026-04-30 09:11 | 13.68488 | 100.75627 | 15 ft | 10 kts | 49° |
| 2026-04-30 09:11 | 13.68556 | 100.75652 | 13 ft | 11 kts | 12° |
| 2026-04-30 09:12 | 13.68638 | 100.75671 | 13 ft | 13 kts | 13° |
| 2026-04-30 09:12 | 13.68730 | 100.75696 | 13 ft | 15 kts | 15° |
| 2026-04-30 09:12 | 13.68833 | 100.75724 | 13 ft | 16 kts | 14° |
| 2026-04-30 09:12 | 13.68947 | 100.75754 | 13 ft | 18 kts | 14° |
| 2026-04-30 09:13 | 13.69048 | 100.75780 | 13 ft | 12 kts | 14° |
| 2026-04-30 09:13 | 13.69107 | 100.75815 | 14 ft | 7 kts | 57° |
| 2026-04-30 09:13 | 13.69104 | 100.75869 | 14 ft | 8 kts | 102° |
| 2026-04-30 09:13 | 13.69089 | 100.75932 | 13 ft | 7 kts | 104° |
| 2026-04-30 09:14 | 13.69082 | 100.75958 | 13 ft | 0 kts | 105° |
| 2026-04-30 09:14 | 13.69082 | 100.75960 | 13 ft | 2 kts | 105° |
| 2026-04-30 09:14 | 13.69072 | 100.75996 | 13 ft | 9 kts | 105° |
| 2026-04-30 09:15 | 13.69035 | 100.76060 | 14 ft | 10 kts | 152° |
| 2026-04-30 09:15 | 13.69002 | 100.76060 | 13 ft | 0 kts | 193° |
| 2026-04-30 09:15 | 13.68875 | 100.76026 | 15 ft | 56 kts | 194° |
| 2026-04-30 09:15 | 13.68244 | 100.75863 | 14 ft | 128 kts | 194° |
| 2026-04-30 09:16 | 13.67221 | 100.75595 | 122 ft | 170 kts | 194° |
| 2026-04-30 09:16 | 13.66079 | 100.75297 | 838 ft | 170 kts | 192° |
| 2026-04-30 09:16 | 13.64899 | 100.75178 | 1623 ft | 171 kts | 180° |
| 2026-04-30 09:16 | 13.63712 | 100.75167 | 2292 ft | 171 kts | 177° |
| 2026-04-30 09:17 | 13.62521 | 100.75176 | 2900 ft | 172 kts | 176° |
| 2026-04-30 09:17 | 13.61312 | 100.75182 | 3390 ft | 180 kts | 177° |
| 2026-04-30 09:17 | 13.59995 | 100.75298 | 3681 ft | 200 kts | 162° |
| 2026-04-30 09:17 | 13.58773 | 100.76078 | 3866 ft | 220 kts | 129° |
| 2026-04-30 09:18 | 13.58145 | 100.77591 | 4095 ft | 245 kts | 104° |
| 2026-04-30 09:18 | 13.57758 | 100.79373 | 4521 ft | 262 kts | 102° |
| 2026-04-30 09:18 | 13.57382 | 100.81234 | 5196 ft | 269 kts | 99° |
| 2026-04-30 09:18 | 13.57302 | 100.83166 | 5897 ft | 273 kts | 91° |
| 2026-04-30 09:19 | 13.57303 | 100.85128 | 6623 ft | 276 kts | 91° |
| 2026-04-30 09:19 | 13.57296 | 100.87114 | 7280 ft | 280 kts | 91° |
| 2026-04-30 09:19 | 13.57283 | 100.89110 | 7821 ft | 286 kts | 91° |
| 2026-04-30 09:19 | 13.57269 | 100.91160 | 8069 ft | 289 kts | 92° |
| 2026-04-30 09:20 | 13.57254 | 100.93229 | 8789 ft | 290 kts | 91° |
| 2026-04-30 09:20 | 13.57239 | 100.95314 | 9464 ft | 294 kts | 91° |
| 2026-04-30 09:20 | 13.57225 | 100.97429 | 10073 ft | 299 kts | 91° |
| 2026-04-30 09:20 | 13.57208 | 100.99637 | 10249 ft | 320 kts | 91° |
| 2026-04-30 09:21 | 13.57366 | 101.01990 | 10371 ft | 341 kts | 79° |
| 2026-04-30 09:21 | 13.58125 | 101.04336 | 10709 ft | 352 kts | 65° |
| 2026-04-30 09:21 | 13.59420 | 101.06497 | 11202 ft | 358 kts | 57° |
| 2026-04-30 09:21 | 13.60809 | 101.08629 | 11764 ft | 360 kts | 57° |
| 2026-04-30 09:22 | 13.62209 | 101.10788 | 12259 ft | 366 kts | 57° |
| 2026-04-30 09:22 | 13.63607 | 101.12949 | 12777 ft | 369 kts | 57° |
| 2026-04-30 09:22 | 13.65035 | 101.15160 | 13329 ft | 373 kts | 57° |
| 2026-04-30 09:22 | 13.66476 | 101.17389 | 13803 ft | 377 kts | 57° |
| 2026-04-30 09:23 | 13.67933 | 101.19640 | 14290 ft | 379 kts | 57° |
| 2026-04-30 09:23 | 13.69396 | 101.21905 | 14770 ft | 382 kts | 57° |
| 2026-04-30 09:23 | 13.70871 | 101.24194 | 15242 ft | 385 kts | 57° |
| 2026-04-30 09:23 | 13.72355 | 101.26498 | 15733 ft | 387 kts | 57° |
| 2026-04-30 09:24 | 13.73851 | 101.28816 | 16188 ft | 391 kts | 57° |
| 2026-04-30 09:24 | 13.75359 | 101.31154 | 16653 ft | 393 kts | 57° |
| 2026-04-30 09:24 | 13.76876 | 101.33501 | 17127 ft | 396 kts | 57° |
| 2026-04-30 09:24 | 13.78408 | 101.35870 | 17578 ft | 399 kts | 57° |
| 2026-04-30 09:25 | 13.79948 | 101.38251 | 18050 ft | 401 kts | 57° |
| 2026-04-30 09:25 | 13.81498 | 101.40652 | 18436 ft | 405 kts | 57° |
| 2026-04-30 09:25 | 13.83058 | 101.43071 | 18852 ft | 406 kts | 57° |
| 2026-04-30 09:25 | 13.84623 | 101.45499 | 19249 ft | 409 kts | 56° |
| 2026-04-30 09:26 | 13.86181 | 101.47913 | 19634 ft | 411 kts | 56° |
| 2026-04-30 09:26 | 13.87765 | 101.50370 | 20031 ft | 413 kts | 56° |
| 2026-04-30 09:26 | 13.89358 | 101.52843 | 20394 ft | 416 kts | 56° |
| 2026-04-30 09:26 | 13.90958 | 101.55328 | 20776 ft | 418 kts | 56° |
| 2026-04-30 09:27 | 13.92566 | 101.57828 | 21152 ft | 420 kts | 56° |
| 2026-04-30 09:27 | 13.94185 | 101.60344 | 21535 ft | 422 kts | 56° |
| 2026-04-30 09:27 | 13.95809 | 101.62869 | 21901 ft | 424 kts | 56° |
| 2026-04-30 09:27 | 13.97440 | 101.65410 | 22234 ft | 427 kts | 56° |
| 2026-04-30 09:28 | 13.99078 | 101.67965 | 22599 ft | 428 kts | 56° |
| 2026-04-30 09:28 | 14.00705 | 101.70500 | 22899 ft | 431 kts | 56° |
| 2026-04-30 09:28 | 14.02362 | 101.73081 | 23256 ft | 433 kts | 56° |
| 2026-04-30 09:28 | 14.04031 | 101.75674 | 23563 ft | 436 kts | 56° |
| 2026-04-30 09:29 | 14.05709 | 101.78279 | 23844 ft | 437 kts | 56° |
| 2026-04-30 09:29 | 14.07390 | 101.80895 | 24164 ft | 439 kts | 56° |
| 2026-04-30 09:29 | 14.09078 | 101.83523 | 24447 ft | 441 kts | 56° |
| 2026-04-30 09:29 | 14.10772 | 101.86166 | 24743 ft | 443 kts | 56° |
| 2026-04-30 09:30 | 14.12470 | 101.88819 | 25020 ft | 445 kts | 56° |
| 2026-04-30 09:30 | 14.14179 | 101.91485 | 25309 ft | 447 kts | 56° |
| 2026-04-30 09:30 | 14.15874 | 101.94123 | 25590 ft | 449 kts | 56° |
| 2026-04-30 09:30 | 14.17409 | 101.96934 | 25887 ft | 452 kts | 64° |
| 2026-04-30 09:31 | 14.18527 | 101.99966 | 26160 ft | 454 kts | 71° |
| 2026-04-30 09:31 | 14.19496 | 102.03069 | 26438 ft | 456 kts | 71° |
| 2026-04-30 09:31 | 14.20477 | 102.06190 | 26703 ft | 459 kts | 71° |
| 2026-04-30 09:31 | 14.21470 | 102.09325 | 26945 ft | 462 kts | 71° |
| 2026-04-30 09:32 | 14.22472 | 102.12481 | 27206 ft | 464 kts | 71° |
| 2026-04-30 09:32 | 14.23478 | 102.15649 | 27471 ft | 467 kts | 71° |
| 2026-04-30 09:32 | 14.24487 | 102.18837 | 27742 ft | 469 kts | 71° |
| 2026-04-30 09:32 | 14.25499 | 102.22036 | 28009 ft | 471 kts | 71° |
| 2026-04-30 09:33 | 14.26502 | 102.25213 | 28272 ft | 473 kts | 71° |
| 2026-04-30 09:33 | 14.27521 | 102.28444 | 28531 ft | 475 kts | 71° |
| 2026-04-30 09:33 | 14.28548 | 102.31694 | 28788 ft | 478 kts | 71° |
| 2026-04-30 09:33 | 14.29577 | 102.34955 | 29045 ft | 480 kts | 71° |
| 2026-04-30 09:34 | 14.30609 | 102.38235 | 29302 ft | 482 kts | 71° |
| 2026-04-30 09:34 | 14.31645 | 102.41531 | 29538 ft | 484 kts | 71° |
| 2026-04-30 09:34 | 14.32688 | 102.44839 | 29745 ft | 487 kts | 71° |
| 2026-04-30 09:34 | 14.33738 | 102.48169 | 29958 ft | 489 kts | 71° |
| 2026-04-30 09:35 | 14.34792 | 102.51508 | 30157 ft | 491 kts | 71° |
| 2026-04-30 09:35 | 14.35847 | 102.54863 | 30337 ft | 493 kts | 71° |
| 2026-04-30 09:35 | 14.36886 | 102.58182 | 30509 ft | 494 kts | 71° |
| 2026-04-30 09:35 | 14.37947 | 102.61560 | 30676 ft | 496 kts | 70° |
| 2026-04-30 09:36 | 14.39073 | 102.64919 | 30866 ft | 496 kts | 69° |
| 2026-04-30 09:36 | 14.40271 | 102.68253 | 31103 ft | 495 kts | 68° |
| 2026-04-30 09:36 | 14.41509 | 102.71569 | 31335 ft | 495 kts | 67° |
| 2026-04-30 09:36 | 14.42758 | 102.74875 | 31568 ft | 495 kts | 67° |
| 2026-04-30 09:37 | 14.43999 | 102.78189 | 31797 ft | 495 kts | 67° |
| 2026-04-30 09:37 | 14.45220 | 102.81506 | 32029 ft | 495 kts | 68° |
| 2026-04-30 09:37 | 14.46428 | 102.84834 | 32248 ft | 495 kts | 68° |
| 2026-04-30 09:37 | 14.47623 | 102.88161 | 32493 ft | 495 kts | 68° |
| 2026-04-30 09:38 | 14.48812 | 102.91495 | 32736 ft | 495 kts | 68° |
| 2026-04-30 09:38 | 14.49994 | 102.94824 | 32976 ft | 494 kts | 68° |
| 2026-04-30 09:38 | 14.51182 | 102.98153 | 33218 ft | 494 kts | 68° |
| 2026-04-30 09:38 | 14.52363 | 103.01434 | 33449 ft | 494 kts | 68° |
| 2026-04-30 09:39 | 14.53562 | 103.04753 | 33688 ft | 494 kts | 68° |
| 2026-04-30 09:39 | 14.54760 | 103.08072 | 33926 ft | 494 kts | 68° |
| 2026-04-30 09:39 | 14.55957 | 103.11395 | 34146 ft | 493 kts | 68° |
| 2026-04-30 09:39 | 14.57150 | 103.14712 | 34359 ft | 493 kts | 68° |
| 2026-04-30 09:40 | 14.58340 | 103.18025 | 34590 ft | 492 kts | 68° |
| 2026-04-30 09:40 | 14.59528 | 103.21339 | 34817 ft | 492 kts | 68° |
| 2026-04-30 09:40 | 14.60714 | 103.24653 | 35047 ft | 491 kts | 68° |
| 2026-04-30 09:40 | 14.61897 | 103.27957 | 35272 ft | 491 kts | 68° |
| 2026-04-30 09:41 | 14.63067 | 103.31216 | 35505 ft | 490 kts | 68° |
| 2026-04-30 09:41 | 14.64249 | 103.34512 | 35736 ft | 490 kts | 68° |
| 2026-04-30 09:41 | 14.65429 | 103.37812 | 35945 ft | 489 kts | 68° |
| 2026-04-30 09:41 | 14.66606 | 103.41103 | 36166 ft | 489 kts | 68° |
| 2026-04-30 09:42 | 14.67784 | 103.44398 | 36381 ft | 488 kts | 68° |
| 2026-04-30 09:42 | 14.68959 | 103.47686 | 36588 ft | 488 kts | 68° |
| 2026-04-30 09:42 | 14.70134 | 103.50971 | 36794 ft | 487 kts | 68° |
| 2026-04-30 09:42 | 14.71306 | 103.54245 | 36876 ft | 485 kts | 68° |
| 2026-04-30 09:43 | 14.73636 | 103.60766 | 36887 ft | 483 kts | 68° |
| 2026-04-30 09:43 | 14.75958 | 103.67267 | 36889 ft | 482 kts | 68° |
| 2026-04-30 09:44 | 14.78257 | 103.73725 | 36890 ft | 482 kts | 68° |
| 2026-04-30 09:44 | 14.80345 | 103.79599 | 36893 ft | 482 kts | 68° |
| 2026-04-30 09:45 | 14.82619 | 103.86114 | 36901 ft | 483 kts | 69° |
| 2026-04-30 09:45 | 14.84865 | 103.92661 | 36911 ft | 483 kts | 69° |
| 2026-04-30 09:46 | 14.87069 | 103.99068 | 36916 ft | 483 kts | 69° |
| 2026-04-30 09:46 | 14.89329 | 104.05602 | 36919 ft | 483 kts | 69° |
| 2026-04-30 09:47 | 14.91588 | 104.12138 | 36918 ft | 483 kts | 69° |
| 2026-04-30 09:47 | 14.93849 | 104.18676 | 36918 ft | 483 kts | 69° |
| 2026-04-30 09:48 | 14.95748 | 104.24186 | 36918 ft | 482 kts | 69° |
| 2026-04-30 09:48 | 14.97997 | 104.30727 | 36923 ft | 481 kts | 69° |
| 2026-04-30 09:49 | 15.00234 | 104.37250 | 36925 ft | 481 kts | 69° |
| 2026-04-30 09:49 | 15.02463 | 104.43763 | 36924 ft | 480 kts | 69° |
| 2026-04-30 09:50 | 15.04691 | 104.50269 | 36926 ft | 480 kts | 69° |
| 2026-04-30 09:50 | 15.06922 | 104.56772 | 36923 ft | 480 kts | 69° |
| 2026-04-30 09:51 | 15.09134 | 104.63236 | 36914 ft | 479 kts | 69° |
| 2026-04-30 09:51 | 15.11351 | 104.69739 | 36906 ft | 479 kts | 69° |
| 2026-04-30 09:52 | 15.13570 | 104.76242 | 36897 ft | 479 kts | 69° |
| 2026-04-30 09:52 | 15.15793 | 104.82743 | 36896 ft | 479 kts | 69° |
| 2026-04-30 09:53 | 15.18000 | 104.89209 | 36887 ft | 480 kts | 69° |
| 2026-04-30 09:53 | 15.20221 | 104.95726 | 36888 ft | 480 kts | 69° |
| 2026-04-30 09:54 | 15.22434 | 105.02245 | 36920 ft | 480 kts | 69° |
| 2026-04-30 09:54 | 15.24644 | 105.08760 | 36922 ft | 479 kts | 69° |
| 2026-04-30 09:55 | 15.26854 | 105.15278 | 36924 ft | 479 kts | 69° |
| 2026-04-30 09:55 | 15.29041 | 105.21749 | 36923 ft | 479 kts | 69° |
| 2026-04-30 09:56 | 15.31252 | 105.28265 | 36919 ft | 479 kts | 69° |
| 2026-04-30 09:56 | 15.33453 | 105.34769 | 36927 ft | 478 kts | 69° |
| 2026-04-30 09:57 | 15.35648 | 105.41265 | 36930 ft | 477 kts | 69° |
| 2026-04-30 09:57 | 15.37821 | 105.47700 | 36928 ft | 476 kts | 69° |
| 2026-04-30 09:58 | 15.40007 | 105.54176 | 36932 ft | 476 kts | 69° |
| 2026-04-30 09:58 | 15.42083 | 105.60684 | 36929 ft | 476 kts | 76° |
| 2026-04-30 09:59 | 15.45050 | 105.74055 | 36928 ft | 476 kts | 76° |
| 2026-04-30 10:00 | 15.47278 | 105.84045 | 36935 ft | 476 kts | 76° |
| 2026-04-30 10:01 | 15.49504 | 105.94087 | 36941 ft | 477 kts | 76° |
| 2026-04-30 10:02 | 15.51719 | 106.04088 | 36939 ft | 477 kts | 77° |
| 2026-04-30 10:02 | 15.53206 | 106.10792 | 36948 ft | 477 kts | 77° |
| 2026-04-30 10:03 | 15.54694 | 106.17502 | 36945 ft | 477 kts | 77° |
| 2026-04-30 10:03 | 15.56173 | 106.24212 | 36957 ft | 478 kts | 77° |
| 2026-04-30 10:04 | 15.57645 | 106.30933 | 36961 ft | 478 kts | 77° |
| 2026-04-30 10:04 | 15.59106 | 106.37614 | 36954 ft | 478 kts | 77° |
| 2026-04-30 10:05 | 15.60579 | 106.44334 | 36952 ft | 478 kts | 77° |
| 2026-04-30 10:05 | 15.62063 | 106.51063 | 36819 ft | 478 kts | 77° |
| 2026-04-30 10:05 | 15.62800 | 106.54419 | 36560 ft | 477 kts | 77° |
| 2026-04-30 10:06 | 15.63535 | 106.57775 | 36315 ft | 477 kts | 77° |
| 2026-04-30 10:06 | 15.64267 | 106.61131 | 36072 ft | 477 kts | 77° |
| 2026-04-30 10:06 | 15.64999 | 106.64490 | 35845 ft | 477 kts | 77° |
| 2026-04-30 10:06 | 15.65730 | 106.67852 | 35608 ft | 478 kts | 77° |
| 2026-04-30 10:07 | 15.66463 | 106.71217 | 35366 ft | 478 kts | 77° |
| 2026-04-30 10:07 | 15.67187 | 106.74538 | 35144 ft | 479 kts | 77° |
| 2026-04-30 10:07 | 15.67922 | 106.77909 | 34675 ft | 480 kts | 77° |
| 2026-04-30 10:07 | 15.68659 | 106.81310 | 33843 ft | 485 kts | 77° |
| 2026-04-30 10:08 | 15.69403 | 106.84746 | 32858 ft | 490 kts | 77° |
| 2026-04-30 10:08 | 15.70148 | 106.88174 | 32370 ft | 484 kts | 77° |
| 2026-04-30 10:08 | 15.70887 | 106.91567 | 31818 ft | 481 kts | 77° |
| 2026-04-30 10:08 | 15.71619 | 106.94941 | 31233 ft | 478 kts | 77° |
| 2026-04-30 10:09 | 15.72336 | 106.98252 | 30667 ft | 475 kts | 77° |
| 2026-04-30 10:09 | 15.73059 | 107.01585 | 30097 ft | 472 kts | 77° |
| 2026-04-30 10:09 | 15.73776 | 107.04898 | 29452 ft | 469 kts | 77° |
| 2026-04-30 10:09 | 15.74485 | 107.08178 | 28919 ft | 463 kts | 78° |
| 2026-04-30 10:10 | 15.75185 | 107.11418 | 28360 ft | 458 kts | 78° |
| 2026-04-30 10:10 | 15.75876 | 107.14623 | 27812 ft | 452 kts | 78° |
| 2026-04-30 10:10 | 15.76468 | 107.17807 | 27271 ft | 447 kts | 84° |
| 2026-04-30 10:10 | 15.76594 | 107.21006 | 26776 ft | 440 kts | 92° |
| 2026-04-30 10:11 | 15.76482 | 107.24165 | 26285 ft | 435 kts | 92° |
| 2026-04-30 10:11 | 15.76379 | 107.27281 | 25810 ft | 430 kts | 92° |
| 2026-04-30 10:11 | 15.76280 | 107.30370 | 25342 ft | 425 kts | 92° |
| 2026-04-30 10:11 | 15.76183 | 107.33420 | 24889 ft | 421 kts | 92° |
| 2026-04-30 10:12 | 15.76088 | 107.36408 | 24448 ft | 418 kts | 91° |
| 2026-04-30 10:12 | 15.75992 | 107.39409 | 24002 ft | 414 kts | 91° |
| 2026-04-30 10:12 | 15.75895 | 107.42385 | 23557 ft | 410 kts | 91° |
| 2026-04-30 10:12 | 15.75800 | 107.45327 | 23076 ft | 406 kts | 91° |
| 2026-04-30 10:13 | 15.75705 | 107.48234 | 22626 ft | 400 kts | 92° |
| 2026-04-30 10:13 | 15.75607 | 107.51102 | 22190 ft | 395 kts | 92° |
| 2026-04-30 10:13 | 15.75512 | 107.53928 | 21740 ft | 390 kts | 92° |
| 2026-04-30 10:13 | 15.75420 | 107.56724 | 21292 ft | 385 kts | 92° |
| 2026-04-30 10:14 | 15.75328 | 107.59486 | 20838 ft | 381 kts | 92° |
| 2026-04-30 10:14 | 15.75235 | 107.62225 | 20363 ft | 378 kts | 92° |
| 2026-04-30 10:14 | 15.75055 | 107.67594 | 19450 ft | 372 kts | 92° |
| 2026-04-30 10:15 | 15.74965 | 107.70267 | 18983 ft | 370 kts | 92° |
| 2026-04-30 10:15 | 15.74873 | 107.72928 | 18520 ft | 368 kts | 92° |
| 2026-04-30 10:15 | 15.74817 | 107.75572 | 17992 ft | 365 kts | 90° |
| 2026-04-30 10:15 | 15.74823 | 107.78195 | 17524 ft | 362 kts | 90° |
| 2026-04-30 10:16 | 15.74863 | 107.80792 | 17064 ft | 358 kts | 89° |
| 2026-04-30 10:16 | 15.74911 | 107.83349 | 16602 ft | 350 kts | 89° |
| 2026-04-30 10:16 | 15.74956 | 107.85840 | 16157 ft | 342 kts | 89° |
| 2026-04-30 10:17 | 15.75019 | 107.90542 | 15788 ft | 312 kts | 89° |
| 2026-04-30 10:17 | 15.75052 | 107.94870 | 15535 ft | 295 kts | 90° |
| 2026-04-30 10:17 | 15.75069 | 107.96998 | 15464 ft | 295 kts | 90° |
| 2026-04-30 10:18 | 15.75086 | 107.99119 | 15343 ft | 293 kts | 89° |
| 2026-04-30 10:18 | 15.75268 | 108.01227 | 15067 ft | 296 kts | 82° |
| 2026-04-30 10:18 | 15.75553 | 108.03337 | 14652 ft | 293 kts | 82° |
| 2026-04-30 10:19 | 15.76126 | 108.07492 | 13856 ft | 288 kts | 83° |
| 2026-04-30 10:19 | 15.76002 | 108.09494 | 13458 ft | 280 kts | 109° |
| 2026-04-30 10:19 | 15.75030 | 108.11196 | 12984 ft | 275 kts | 137° |
| 2026-04-30 10:19 | 15.73434 | 108.12230 | 12541 ft | 271 kts | 163° |
| 2026-04-30 10:20 | 15.71594 | 108.12582 | 12089 ft | 269 kts | 173° |
| 2026-04-30 10:20 | 15.67897 | 108.13110 | 11260 ft | 267 kts | 172° |
| 2026-04-30 10:20 | 15.66067 | 108.13373 | 10874 ft | 265 kts | 172° |
| 2026-04-30 10:21 | 15.64250 | 108.13634 | 10496 ft | 263 kts | 172° |
| 2026-04-30 10:21 | 15.62499 | 108.14104 | 10107 ft | 260 kts | 151° |
| 2026-04-30 10:21 | 15.61194 | 108.15322 | 9720 ft | 257 kts | 121° |
| 2026-04-30 10:21 | 15.60624 | 108.17052 | 9267 ft | 255 kts | 92° |
| 2026-04-30 10:22 | 15.60782 | 108.18876 | 8862 ft | 252 kts | 81° |
| 2026-04-30 10:22 | 15.61029 | 108.20632 | 8671 ft | 242 kts | 81° |
| 2026-04-30 10:22 | 15.61270 | 108.22341 | 8325 ft | 238 kts | 82° |
| 2026-04-30 10:22 | 15.61683 | 108.23980 | 7946 ft | 234 kts | 60° |
| 2026-04-30 10:23 | 15.62745 | 108.25227 | 7550 ft | 231 kts | 32° |
| 2026-04-30 10:23 | 15.64236 | 108.25784 | 7147 ft | 229 kts | 4° |
| 2026-04-30 10:23 | 15.65798 | 108.25654 | 6750 ft | 229 kts | 351° |
| 2026-04-30 10:23 | 15.67370 | 108.25407 | 6363 ft | 228 kts | 352° |
| 2026-04-30 10:24 | 15.68936 | 108.25175 | 5985 ft | 226 kts | 352° |
| 2026-04-30 10:24 | 15.70487 | 108.24951 | 5594 ft | 224 kts | 353° |
| 2026-04-30 10:24 | 15.72029 | 108.24728 | 5196 ft | 223 kts | 353° |
| 2026-04-30 10:24 | 15.73558 | 108.24507 | 4842 ft | 222 kts | 353° |
| 2026-04-30 10:25 | 15.75083 | 108.24287 | 4535 ft | 221 kts | 353° |
| 2026-04-30 10:25 | 15.76587 | 108.24069 | 4413 ft | 218 kts | 353° |
| 2026-04-30 10:25 | 15.78077 | 108.23853 | 4414 ft | 212 kts | 353° |
| 2026-04-30 10:25 | 15.79527 | 108.23643 | 4410 ft | 209 kts | 353° |
| 2026-04-30 10:26 | 15.80978 | 108.23433 | 4188 ft | 209 kts | 353° |
| 2026-04-30 10:26 | 15.82403 | 108.23227 | 3904 ft | 205 kts | 353° |
| 2026-04-30 10:26 | 15.83788 | 108.23026 | 3651 ft | 202 kts | 353° |
| 2026-04-30 10:26 | 15.85187 | 108.22824 | 3393 ft | 203 kts | 353° |
| 2026-04-30 10:27 | 15.86564 | 108.22624 | 3137 ft | 196 kts | 353° |
| 2026-04-30 10:27 | 15.87881 | 108.22433 | 2886 ft | 187 kts | 353° |
| 2026-04-30 10:27 | 15.89142 | 108.22250 | 2647 ft | 179 kts | 353° |
| 2026-04-30 10:27 | 15.90353 | 108.22075 | 2420 ft | 172 kts | 354° |
| 2026-04-30 10:28 | 15.91494 | 108.21910 | 2213 ft | 158 kts | 350° |
| 2026-04-30 10:28 | 15.92539 | 108.21759 | 2016 ft | 147 kts | 348° |
| 2026-04-30 10:28 | 15.93514 | 108.21618 | 1823 ft | 142 kts | 348° |
| 2026-04-30 10:28 | 15.94483 | 108.21477 | 1640 ft | 139 kts | 350° |
| 2026-04-30 10:29 | 15.95436 | 108.21332 | 1510 ft | 138 kts | 350° |
| 2026-04-30 10:29 | 15.96382 | 108.21168 | 1297 ft | 135 kts | 351° |
| 2026-04-30 10:29 | 15.97343 | 108.21005 | 1112 ft | 143 kts | 356° |
| 2026-04-30 10:29 | 15.98305 | 108.20906 | 939 ft | 134 kts | 357° |
| 2026-04-30 10:30 | 15.99249 | 108.20738 | 803 ft | 138 kts | 355° |
| 2026-04-30 10:30 | 16.00190 | 108.20590 | 617 ft | 135 kts | 354° |
| 2026-04-30 10:30 | 16.01103 | 108.20549 | 476 ft | 134 kts | 360° |
| 2026-04-30 10:30 | 16.02036 | 108.20374 | 241 ft | 137 kts | 355° |
| 2026-04-30 10:31 | 16.02979 | 108.20237 | 75 ft | 136 kts | 355° |
| 2026-04-30 10:31 | 16.03884 | 108.20109 | 33 ft | 120 kts | 354° |
| 2026-04-30 10:31 | 16.04524 | 108.20022 | 30 ft | 55 kts | 352° |
| 2026-04-30 10:31 | 16.04721 | 108.19991 | 30 ft | 12 kts | 352° |
| 2026-04-30 10:32 | 16.04810 | 108.19978 | 30 ft | 9 kts | 352° |
| 2026-04-30 10:32 | 16.04872 | 108.19975 | 30 ft | 9 kts | 12° |
| 2026-04-30 10:32 | 16.04907 | 108.20020 | 29 ft | 8 kts | 74° |
| 2026-04-30 10:32 | 16.04922 | 108.20074 | 29 ft | 9 kts | 62° |
| 2026-04-30 10:33 | 16.04983 | 108.20092 | 29 ft | 11 kts | 353° |
| 2026-04-30 10:33 | 16.05087 | 108.20077 | 29 ft | 19 kts | 353° |
| 2026-04-30 10:33 | 16.05177 | 108.20064 | 30 ft | 5 kts | 351° |
| 2026-04-30 10:33 | 16.05211 | 108.20059 | 29 ft | 5 kts | 351° |
| 2026-04-30 10:34 | 16.05249 | 108.20096 | 29 ft | 12 kts | 71° |
| 2026-04-30 10:34 | 16.05299 | 108.20135 | 29 ft | 10 kts | 348° |
| 2026-04-30 10:34 | 16.05357 | 108.20124 | 29 ft | 6 kts | 350° |
| 2026-04-30 10:34 | 16.05381 | 108.20120 | 29 ft | 3 kts | 352° |
| 2026-04-30 10:35 | 16.05414 | 108.20125 | 29 ft | 5 kts | 32° |
| 2026-04-30 10:35 | 16.05424 | 108.20177 | 29 ft | 2 kts | 83° |
| 2026-04-30 10:35 | 16.05425 | 108.20187 | 29 ft | 1 kts | 84° |
| 2026-04-30 10:35 | 16.05425 | 108.20191 | 29 ft | 0 kts | 84° |